Time;durP1;ratioP1;P1;durP2;ratioP2;P2;SDS_P1;SDS_P2;PMS_P1;PMS_P2;Temp;Humidity;BMP_temperature;BMP_pressure;BME280_temperature;BME280_humidity;BME280_pressure;Samples;Min_cycle;Max_cycle;Signal;HPM_P1;HPM_P2
2023/04/06 00:01:08;;;;;;;42.23;17.30;;;-2.00;1.00;;;;;;4447246;28;659175;-75
2023/04/06 00:03:55;;;;;;;98.77;31.67;;;-2.00;1.00;;;;;;4417007;28;657790;-71
2023/04/06 00:06:42;;;;;;;57.03;19.43;;;-2.00;1.00;;;;;;4449174;28;658638;-74
2023/04/06 00:09:30;;;;;;;42.70;16.77;;;-2.10;1.00;;;;;;4437288;28;659703;-71
2023/04/06 00:12:19;;;;;;;45.33;18.00;;;-2.10;1.00;;;;;;4444332;28;657319;-72
2023/04/06 00:15:07;;;;;;;50.30;18.93;;;-2.10;1.00;;;;;;4416824;28;657363;-74
2023/04/06 00:17:54;;;;;;;35.40;13.87;;;-2.20;1.00;;;;;;4431336;28;658145;-74
2023/04/06 00:20:42;;;;;;;33.70;12.53;;;-2.20;1.00;;;;;;4433329;28;658068;-75
2023/04/06 00:23:29;;;;;;;39.97;14.80;;;-2.20;1.00;;;;;;4456646;28;658207;-74
2023/04/06 00:26:16;;;;;;;41.70;15.90;;;-2.20;1.00;;;;;;4436525;28;658425;-74
2023/04/06 00:29:04;;;;;;;33.33;13.27;;;-2.20;1.00;;;;;;4452709;28;658893;-74
2023/04/06 00:31:52;;;;;;;37.67;13.63;;;-2.20;1.00;;;;;;4417324;28;658564;-73
2023/04/06 00:34:39;;;;;;;38.90;14.57;;;-2.30;1.00;;;;;;4451377;28;658323;-74
2023/04/06 00:37:26;;;;;;;39.67;14.33;;;-2.30;1.00;;;;;;4427224;28;657759;-73
2023/04/06 00:40:13;;;;;;;21.73;9.90;;;-2.30;1.00;;;;;;4448173;28;658603;-72
2023/04/06 00:43:00;;;;;;;18.40;8.73;;;-2.30;1.00;;;;;;4430396;28;656371;-74
2023/04/06 00:45:49;;;;;;;20.33;9.13;;;-2.30;1.00;;;;;;4448827;28;657101;-74
2023/04/06 00:48:36;;;;;;;17.53;8.10;;;-2.40;1.00;;;;;;4415414;28;656610;-75
2023/04/06 00:51:25;;;;;;;16.83;7.83;;;-2.40;1.00;;;;;;4439802;28;657229;-75
2023/04/06 00:54:12;;;;;;;18.03;9.00;;;-2.40;1.00;;;;;;4429091;28;657401;-74
2023/04/06 00:56:59;;;;;;;18.17;7.80;;;-2.40;1.00;;;;;;4444990;28;656433;-74
2023/04/06 00:59:47;;;;;;;20.30;8.20;;;-2.40;1.00;;;;;;4423626;28;658010;-74
2023/04/06 01:02:36;;;;;;;23.87;8.77;;;-2.40;1.00;;;;;;4437379;28;657057;-74
2023/04/06 01:05:23;;;;;;;16.50;7.77;;;-2.50;1.00;;;;;;4430671;28;656984;-74
2023/04/06 01:08:10;;;;;;;16.25;7.50;;;-2.50;1.00;;;;;;4433176;28;656778;-71
2023/04/06 01:11:00;;;;;;;12.93;7.07;;;-2.40;1.00;;;;;;4446046;28;658796;-74
2023/04/06 01:13:47;;;;;;;18.00;7.63;;;-2.40;1.00;;;;;;4416660;28;657412;-74
2023/04/06 01:16:35;;;;;;;15.90;6.53;;;-2.40;1.00;;;;;;4449275;28;656596;-72
2023/04/06 01:19:24;;;;;;;14.20;6.57;;;-2.40;1.00;;;;;;4458703;28;656597;-75
2023/04/06 01:22:16;;;;;;;15.35;6.93;;;-2.40;1.00;;;;;;4429857;28;657077;-74
2023/04/06 01:25:04;;;;;;;14.53;6.80;;;-2.40;1.00;;;;;;4414677;28;656800;-74
2023/04/06 01:27:51;;;;;;;17.20;7.23;;;-2.40;1.00;;;;;;4425898;28;657684;-72
2023/04/06 01:30:38;;;;;;;21.03;8.53;;;-2.30;1.00;;;;;;4459876;28;657692;-74
2023/04/06 01:33:25;;;;;;;24.02;8.73;;;-2.30;1.00;;;;;;4433255;28;656203;-72
2023/04/06 01:36:12;;;;;;;21.03;8.30;;;-2.30;1.00;;;;;;4451014;28;656930;-74
2023/04/06 01:39:02;;;;;;;24.60;8.97;;;-2.30;1.00;;;;;;4458457;28;657148;-72
2023/04/06 01:41:49;;;;;;;21.93;9.57;;;-2.30;1.00;;;;;;4452212;28;657267;-71
2023/04/06 01:44:36;;;;;;;19.30;8.97;;;-2.40;1.00;;;;;;4436420;28;656969;-74
2023/04/06 01:47:24;;;;;;;18.43;8.70;;;-2.40;1.00;;;;;;4461408;28;656928;-72
2023/04/06 01:50:11;;;;;;;23.20;9.03;;;-2.40;1.00;;;;;;4442855;28;656824;-74
2023/04/06 01:52:58;;;;;;;20.33;8.03;;;-2.40;1.00;;;;;;4444117;28;657967;-74
2023/04/06 01:55:47;;;;;;;19.20;8.43;;;-2.50;1.00;;;;;;4440127;28;656840;-73
2023/04/06 01:58:35;;;;;;;16.87;7.30;;;-2.50;1.00;;;;;;4445280;28;656416;-74
2023/04/06 02:01:22;;;;;;;22.00;8.30;;;-2.60;1.00;;;;;;4426402;28;657972;-73
2023/04/06 02:04:09;;;;;;;15.97;7.50;;;-2.60;1.00;;;;;;4459532;28;656234;-74
2023/04/06 02:06:56;;;;;;;18.77;8.30;;;-2.70;1.00;;;;;;4428308;28;657718;-74
2023/04/06 02:09:44;;;;;;;17.23;8.17;;;-2.70;1.00;;;;;;4456636;28;657436;-74
2023/04/06 02:12:32;;;;;;;20.57;8.27;;;-2.80;1.00;;;;;;4442834;28;656442;-74
2023/04/06 02:15:19;;;;;;;21.47;8.40;;;-2.80;1.00;;;;;;4456369;28;656975;-74
2023/04/06 02:18:07;;;;;;;17.17;7.97;;;-2.80;1.00;;;;;;4426582;28;656691;-74
2023/04/06 02:20:54;;;;;;;17.73;7.13;;;-2.80;1.00;;;;;;4454756;28;656914;-74
2023/04/06 02:23:41;;;;;;;17.17;7.23;;;-2.90;1.00;;;;;;4442959;28;656951;-72
2023/04/06 02:26:29;;;;;;;14.83;7.50;;;-2.90;1.00;;;;;;4460225;28;656913;-72
2023/04/06 02:29:17;;;;;;;15.60;7.70;;;-2.90;1.00;;;;;;4436953;28;656529;-74
2023/04/06 02:32:05;;;;;;;14.17;7.20;;;-3.00;1.00;;;;;;4464360;28;656880;-74
2023/04/06 02:34:52;;;;;;;16.37;7.53;;;-3.00;1.00;;;;;;4424943;28;657618;-74
2023/04/06 02:37:39;;;;;;;15.73;7.07;;;-3.10;1.00;;;;;;4457691;28;657125;-74
2023/04/06 02:40:27;;;;;;;17.70;8.10;;;-3.10;1.00;;;;;;4424952;28;656791;-74
2023/04/06 02:43:15;;;;;;;19.47;7.77;;;-3.20;1.00;;;;;;4447001;28;657886;-74
2023/04/06 02:46:03;;;;;;;18.73;7.67;;;-3.30;1.00;;;;;;4422647;28;659225;-73
2023/04/06 02:48:51;;;;;;;15.73;7.50;;;-3.30;1.00;;;;;;4438677;28;658272;-73
2023/04/06 02:51:38;;;;;;;14.93;7.27;;;-3.30;1.00;;;;;;4442503;28;657245;-75
2023/04/06 02:54:25;;;;;;;14.25;7.40;;;-3.40;1.00;;;;;;4430940;28;656284;-72
2023/04/06 02:57:12;;;;;;;17.93;7.60;;;-3.40;1.00;;;;;;4461265;28;656756;-74
2023/04/06 02:59:59;;;;;;;18.43;7.57;;;-3.40;1.00;;;;;;4450240;27;656455;-75
2023/04/06 03:02:48;;;;;;;15.93;6.60;;;-3.40;1.00;;;;;;4429326;28;658056;-75
2023/04/06 03:05:35;;;;;;;17.95;7.10;;;-3.40;1.00;;;;;;4437364;28;656409;-72
2023/04/06 03:08:22;;;;;;;17.07;7.90;;;-3.50;1.00;;;;;;4449737;28;657814;-74
2023/04/06 03:11:10;;;;;;;20.70;7.87;;;-3.50;1.00;;;;;;4453515;28;656749;-72
2023/04/06 03:13:58;;;;;;;16.57;8.17;;;-3.50;1.00;;;;;;4462515;28;657390;-75
2023/04/06 03:16:46;;;;;;;15.90;8.17;;;-3.50;1.00;;;;;;4436212;28;657988;-74
2023/04/06 03:19:35;;;;;;;17.60;7.57;;;-3.50;1.00;;;;;;4454404;28;657023;-74
2023/04/06 03:22:22;;;;;;;19.70;8.53;;;-3.50;1.00;;;;;;4429358;28;657405;-73
2023/04/06 03:25:09;;;;;;;19.07;8.93;;;-3.50;1.00;;;;;;4447056;28;656995;-74
2023/04/06 03:27:57;;;;;;;22.33;8.67;;;-3.50;1.00;;;;;;4437216;28;657477;-74
2023/04/06 03:30:44;;;;;;;20.43;8.93;;;-3.50;1.00;;;;;;4434775;28;657383;-74
2023/04/06 03:33:31;;;;;;;20.07;8.93;;;-3.60;1.00;;;;;;4430254;28;656378;-73
2023/04/06 03:36:20;;;;;;;20.10;9.03;;;-3.60;1.00;;;;;;4452385;28;656783;-74
2023/04/06 03:39:07;;;;;;;24.53;8.13;;;-3.60;1.00;;;;;;4437197;28;658306;-74
2023/04/06 03:41:54;;;;;;;16.58;8.68;;;-3.50;1.00;;;;;;4451998;28;656043;-74
2023/04/06 03:44:41;;;;;;;19.23;9.33;;;-3.60;1.00;;;;;;4428247;28;656071;-73
2023/04/06 03:47:29;;;;;;;20.73;8.90;;;-3.60;1.00;;;;;;4451462;28;657071;-75
2023/04/06 03:50:16;;;;;;;19.60;8.83;;;-3.60;1.00;;;;;;4441323;28;656421;-74
2023/04/06 03:53:04;;;;;;;17.60;8.37;;;-3.60;1.00;;;;;;4451946;28;657595;-74
2023/04/06 03:55:52;;;;;;;19.13;8.80;;;-3.60;1.00;;;;;;4421552;28;657684;-73
2023/04/06 03:58:39;;;;;;;19.13;8.83;;;-3.60;1.00;;;;;;4460555;28;656733;-75
2023/04/06 04:01:26;;;;;;;16.70;8.30;;;-3.50;1.00;;;;;;4428133;28;656505;-74
2023/04/06 04:04:13;;;;;;;22.88;8.93;;;-3.50;1.00;;;;;;4451634;28;657337;-74
2023/04/06 04:07:00;;;;;;;16.70;7.70;;;-3.50;1.00;;;;;;4439695;28;656248;-73
2023/04/06 04:09:49;;;;;;;18.53;8.07;;;-3.60;1.00;;;;;;4444223;28;658106;-74
2023/04/06 04:12:36;;;;;;;17.30;7.83;;;-3.60;1.00;;;;;;4440962;28;656764;-74
2023/04/06 04:15:23;;;;;;;21.07;8.53;;;-3.60;1.00;;;;;;4434328;28;656864;-75
2023/04/06 04:18:11;;;;;;;15.93;7.37;;;-3.60;1.00;;;;;;4439487;28;656403;-75
2023/04/06 04:20:58;;;;;;;20.93;8.67;;;-3.60;1.00;;;;;;4447273;28;656933;-74
2023/04/06 04:23:45;;;;;;;18.87;8.23;;;-3.60;1.00;;;;;;4430225;28;656915;-73
2023/04/06 04:26:34;;;;;;;26.33;9.37;;;-3.60;1.00;;;;;;4444841;28;657494;-74
2023/04/06 04:29:22;;;;;;;20.27;8.80;;;-3.50;1.00;;;;;;4424228;28;656748;-74
2023/04/06 04:32:09;;;;;;;23.10;9.23;;;-3.50;1.00;;;;;;4448706;28;657330;-74
2023/04/06 04:34:56;;;;;;;20.57;8.43;;;-3.40;1.00;;;;;;4439850;28;657369;-74
2023/04/06 04:37:44;;;;;;;19.73;8.33;;;-3.30;1.00;;;;;;4455111;28;657079;-74
2023/04/06 04:40:31;;;;;;;22.43;9.47;;;-3.30;1.00;;;;;;4433872;28;658003;-74
2023/04/06 04:43:19;;;;;;;21.23;8.80;;;-3.30;1.00;;;;;;4452724;28;657854;-74
2023/04/06 04:46:07;;;;;;;20.37;9.83;;;-3.20;1.00;;;;;;4430669;28;657700;-74
2023/04/06 04:48:54;;;;;;;20.23;9.27;;;-3.00;1.00;;;;;;4458098;28;656134;-74
2023/04/06 04:51:41;;;;;;;21.60;9.13;;;-2.90;1.00;;;;;;4435882;28;656501;-74
2023/04/06 04:54:28;;;;;;;20.03;8.87;;;-2.70;1.00;;;;;;4452954;28;657763;-74
2023/04/06 04:57:15;;;;;;;20.07;9.37;;;-2.60;1.00;;;;;;4424744;28;656784;-73
2023/04/06 05:00:05;;;;;;;22.73;9.63;;;-2.50;1.00;;;;;;4453846;28;658262;-73
2023/04/06 05:02:52;;;;;;;22.35;9.38;;;-2.40;1.00;;;;;;4437613;28;658866;-74
2023/04/06 05:05:39;;;;;;;20.77;8.33;;;-2.20;1.00;;;;;;4454370;28;656447;-75
2023/04/06 05:08:27;;;;;;;16.57;8.57;;;-2.20;1.00;;;;;;4441020;28;656938;-73
2023/04/06 05:11:14;;;;;;;25.60;9.50;;;-2.10;1.00;;;;;;4445793;28;657013;-74
2023/04/06 05:14:01;;;;;;;20.83;8.73;;;-2.00;1.00;;;;;;4440781;28;656724;-74
2023/04/06 05:16:50;;;;;;;17.20;8.70;;;-1.90;1.00;;;;;;4461503;27;658270;-74
2023/04/06 05:19:37;;;;;;;16.43;7.93;;;-1.80;1.00;;;;;;4418135;28;658339;-75
2023/04/06 05:22:24;;;;;;;17.93;8.40;;;-1.70;1.00;;;;;;4460910;28;656560;-73
2023/04/06 05:25:11;;;;;;;19.40;7.90;;;-1.50;1.00;;;;;;4419446;28;656466;-75
2023/04/06 05:27:59;;;;;;;18.97;8.30;;;-1.40;1.00;;;;;;4442356;28;656943;-74
2023/04/06 05:30:46;;;;;;;20.83;8.47;;;-1.30;1.00;;;;;;4421478;28;656877;-74
2023/04/06 05:33:35;;;;;;;19.23;8.27;;;-1.20;1.00;;;;;;4455037;28;657962;-75
2023/04/06 05:36:22;;;;;;;19.10;7.93;;;-1.10;1.00;;;;;;4433099;28;658517;-72
2023/04/06 05:39:09;;;;;;;17.33;8.03;;;-0.90;1.00;;;;;;4455264;28;655916;-76
2023/04/06 05:41:56;;;;;;;19.67;8.00;;;-0.90;1.00;;;;;;4421106;28;656603;-76
2023/04/06 05:44:43;;;;;;;22.73;8.23;;;-0.70;1.00;;;;;;4452271;28;656872;-75
2023/04/06 05:47:31;;;;;;;22.73;8.80;;;-0.70;1.00;;;;;;4433188;28;656963;-73
2023/04/06 05:50:19;;;;;;;20.60;9.10;;;-0.40;1.00;;;;;;4448670;28;657422;-76
2023/04/06 05:53:06;;;;;;;25.20;9.10;;;-0.40;1.00;;;;;;4432078;28;656478;-76
2023/04/06 05:55:54;;;;;;;19.57;8.87;;;-0.30;1.00;;;;;;4450160;28;657021;-76
2023/04/06 05:58:41;;;;;;;18.23;8.73;;;-0.20;1.00;;;;;;4437273;28;656895;-75
2023/04/06 06:01:28;;;;;;;23.00;9.82;;;-0.10;99.90;;;;;;4447806;28;657743;-76
2023/04/06 06:04:16;;;;;;;24.40;10.30;;;0.10;99.90;;;;;;4437650;28;658403;-75
2023/04/06 06:07:05;;;;;;;24.93;9.33;;;0.20;99.90;;;;;;4452443;28;658158;-75
2023/04/06 06:09:52;;;;;;;26.23;10.53;;;0.40;99.90;;;;;;4420553;28;658126;-75
2023/04/06 06:12:39;;;;;;;23.95;9.32;;;0.60;99.90;;;;;;4435875;28;658405;-76
2023/04/06 06:15:26;;;;;;;20.73;9.47;;;0.70;99.90;;;;;;4436194;28;656313;-75
2023/04/06 06:18:14;;;;;;;25.00;9.60;;;1.00;99.90;;;;;;4457852;28;658064;-74
2023/04/06 06:21:01;;;;;;;23.03;9.17;;;1.20;99.90;;;;;;4436132;28;656799;-75
2023/04/06 06:23:50;;;;;;;19.97;8.03;;;1.30;99.90;;;;;;4459603;28;657001;-75
2023/04/06 06:26:39;;;;;;;16.50;6.67;;;1.30;99.90;;;;;;4424021;28;657703;-75
2023/04/06 06:29:26;;;;;;;14.97;6.40;;;1.10;99.90;;;;;;4435852;28;656712;-75
2023/04/06 06:32:13;;;;;;;12.17;6.50;;;1.10;99.90;;;;;;4440739;28;657766;-73
2023/04/06 06:35:00;;;;;;;12.93;6.00;;;1.30;99.90;;;;;;4439961;28;656822;-74
2023/04/06 06:37:48;;;;;;;11.17;5.97;;;1.60;99.90;;;;;;4453854;28;657903;-74
2023/04/06 06:40:37;;;;;;;27.30;12.80;;;1.60;99.90;;;;;;4434315;28;656626;-75
2023/04/06 06:43:24;;;;;;;14.27;6.60;;;2.00;99.90;;;;;;4443755;28;659197;-75
2023/04/06 06:46:11;;;;;;;13.63;6.50;;;2.10;99.90;;;;;;4433656;28;657240;-75
2023/04/06 06:48:59;;;;;;;17.20;8.00;;;2.20;99.90;;;;;;4446490;28;657664;-76
2023/04/06 06:51:46;;;;;;;16.57;7.87;;;2.50;99.90;;;;;;4424837;28;656438;-75
2023/04/06 06:54:33;;;;;;;42.20;14.90;;;2.60;99.90;;;;;;4455272;28;657037;-74
2023/04/06 06:57:22;;;;;;;16.63;7.60;;;2.70;99.90;;;;;;4437074;28;657889;-73
2023/04/06 07:00:10;;;;;;;16.50;7.67;;;2.40;99.90;;;;;;4454801;28;657170;-75
2023/04/06 07:02:58;;;;;;;14.83;6.70;;;2.30;99.90;;;;;;4413180;28;657299;-74
2023/04/06 07:05:52;;;;;;;16.83;7.03;;;2.20;99.90;;;;;;4443273;28;656687;-73
2023/04/06 07:08:40;;;;;;;14.00;6.60;;;2.00;99.90;;;;;;4436986;28;656845;-74
2023/04/06 07:11:27;;;;;;;21.43;8.43;;;1.80;99.90;;;;;;4439088;28;657596;-73
2023/04/06 07:14:16;;;;;;;14.43;7.20;;;1.60;99.90;;;;;;4453318;28;656195;-74
2023/04/06 07:17:03;;;;;;;16.63;7.30;;;1.70;99.90;;;;;;4417831;27;656815;-74
2023/04/06 07:19:50;;;;;;;13.77;6.53;;;1.70;99.90;;;;;;4442393;28;656305;-74
2023/04/06 07:22:38;;;;;;;14.10;6.17;;;1.20;99.90;;;;;;4449526;28;659692;-75
2023/04/06 07:25:25;;;;;;;12.40;6.60;;;1.40;99.90;;;;;;4423169;28;657101;-75
2023/04/06 07:28:13;;;;;;;12.10;6.00;;;1.40;99.90;;;;;;4457299;28;657312;-76
2023/04/06 07:31:02;;;;;;;12.00;5.90;;;1.60;99.90;;;;;;4447992;28;656774;-73
2023/04/06 07:33:49;;;;;;;11.67;6.17;;;1.50;99.90;;;;;;4441048;28;656984;-75
2023/04/06 07:36:37;;;;;;;12.37;7.00;;;1.50;99.90;;;;;;4422092;28;656899;-75
2023/04/06 07:39:26;;;;;;;16.40;7.53;;;1.60;99.90;;;;;;4459140;28;656035;-75
2023/04/06 07:42:13;;;;;;;15.13;6.77;;;1.50;99.90;;;;;;4417230;28;657108;-75
2023/04/06 07:45:00;;;;;;;11.30;5.90;;;1.30;99.90;;;;;;4442346;28;656880;-73
2023/04/06 07:47:49;;;;;;;12.07;6.53;;;1.20;99.90;;;;;;4461204;28;657326;-76
2023/04/06 07:50:36;;;;;;;9.67;5.07;;;1.50;99.90;;;;;;4429692;28;657196;-75
2023/04/06 07:53:24;;;;;;;12.20;6.10;;;1.40;99.90;;;;;;4459529;28;656471;-76
2023/04/06 07:56:11;;;;;;;12.53;6.20;;;1.50;99.90;;;;;;4434775;28;656421;-74
2023/04/06 07:58:59;;;;;;;11.00;5.70;;;1.70;99.90;;;;;;4442398;28;657254;-75
2023/04/06 08:01:46;;;;;;;13.40;6.23;;;1.90;99.90;;;;;;4419000;28;656708;-75
2023/04/06 08:04:34;;;;;;;11.77;6.03;;;2.00;99.90;;;;;;4454902;28;656842;-75
2023/04/06 08:07:22;;;;;;;13.77;6.10;;;2.10;99.90;;;;;;4425155;28;657456;-73
2023/04/06 08:10:10;;;;;;;10.63;6.13;;;2.00;99.90;;;;;;4457501;28;656616;-76
2023/04/06 08:12:57;;;;;;;15.53;6.90;;;2.20;99.90;;;;;;4425334;28;657832;-76
2023/04/06 08:15:44;;;;;;;11.37;6.30;;;2.20;99.90;;;;;;4457178;28;656823;-75
2023/04/06 08:18:31;;;;;;;15.83;6.57;;;2.20;99.90;;;;;;4418335;28;656610;-75
2023/04/06 08:21:20;;;;;;;13.07;6.23;;;2.30;99.90;;;;;;4457711;28;657051;-76
2023/04/06 08:24:07;;;;;;;12.93;6.23;;;2.40;99.90;;;;;;4420265;28;657644;-73
2023/04/06 08:26:55;;;;;;;13.77;7.13;;;1.60;99.90;;;;;;4437279;28;656843;-73
2023/04/06 08:29:42;;;;;;;13.83;7.43;;;1.90;99.90;;;;;;4445651;28;659022;-75
2023/04/06 08:32:30;;;;;;;8.83;5.00;;;1.90;99.90;;;;;;4443526;28;657438;-72
2023/04/06 08:35:17;;;;;;;14.07;6.90;;;2.00;99.90;;;;;;4461859;28;655752;-74
2023/04/06 08:38:07;;;;;;;11.50;6.30;;;2.00;99.90;;;;;;4455757;28;657271;-72
2023/04/06 08:40:54;;;;;;;13.95;6.88;;;1.70;99.90;;;;;;4443508;28;656338;-76
2023/04/06 08:43:44;;;;;;;14.20;6.93;;;2.10;99.90;;;;;;4429757;28;658023;-73
2023/04/06 08:46:32;;;;;;;15.80;7.43;;;2.20;99.90;;;;;;4437760;28;656402;-74
2023/04/06 08:49:19;;;;;;;14.37;6.23;;;2.60;99.90;;;;;;4458073;28;656706;-76
2023/04/06 08:52:07;;;;;;;12.07;6.17;;;3.00;99.90;;;;;;4425194;28;656791;-76
2023/04/06 08:54:56;;;;;;;8.13;3.97;;;3.20;99.90;;;;;;4456788;28;656467;-75
2023/04/06 08:57:43;;;;;;;13.90;6.97;;;2.90;99.90;;;;;;4425256;28;655810;-74
2023/04/06 09:00:30;;;;;;;13.13;6.30;;;3.40;99.90;;;;;;4439347;28;657778;-73
2023/04/06 09:03:17;;;;;;;11.10;6.13;;;3.70;99.90;;;;;;4455711;28;657750;-76
2023/04/06 09:06:05;;;;;;;12.43;5.73;;;3.80;99.90;;;;;;4453042;28;656623;-73
2023/04/06 09:08:53;;;;;;;11.37;5.73;;;3.40;99.90;;;;;;4459509;28;657658;-75
2023/04/06 09:11:48;;;;;;;14.17;6.63;;;3.30;99.90;;;;;;4451881;28;657163;-73
2023/04/06 09:14:37;;;;;;;10.43;5.73;;;3.30;99.90;;;;;;4405237;28;657158;-74
2023/04/06 09:17:25;;;;;;;14.93;6.30;;;3.60;99.90;;;;;;4457201;28;656752;-74
2023/04/06 09:20:12;;;;;;;11.57;5.93;;;3.20;99.90;;;;;;4432923;28;657604;-76
2023/04/06 09:22:59;;;;;;;12.40;5.70;;;3.60;99.90;;;;;;4458933;28;656109;-73
2023/04/06 09:25:47;;;;;;;10.80;6.07;;;4.10;99.90;;;;;;4422911;28;657061;-74
2023/04/06 09:28:45;;;;;;;8.77;5.70;;;4.70;99.90;;;;;;4460553;28;656558;-75
2023/04/06 09:31:33;;;;;;;10.27;6.10;;;4.50;99.90;;;;;;4406420;28;657016;-75
2023/04/06 09:34:23;;;;;;;11.23;5.80;;;4.60;99.90;;;;;;4440759;28;656358;-73
2023/04/06 09:37:14;;;;;;;12.33;5.83;;;4.70;99.90;;;;;;4436390;28;657050;-75
2023/04/06 09:40:06;;;;;;;12.47;5.27;;;4.30;99.90;;;;;;4434473;28;657470;-76
2023/04/06 09:42:57;;;;;;;11.13;5.70;;;4.10;99.90;;;;;;4422816;28;657079;-76
2023/04/06 09:45:47;;;;;;;8.83;5.37;;;4.50;99.90;;;;;;4423274;28;656844;-74
2023/04/06 09:48:34;;;;;;;8.67;5.03;;;4.80;99.90;;;;;;4426057;28;656557;-75
2023/04/06 09:51:22;;;;;;;11.50;5.67;;;5.20;99.90;;;;;;4431926;28;655509;-74
2023/04/06 09:54:09;;;;;;;12.17;5.60;;;5.40;99.90;;;;;;4449107;28;656571;-74
2023/04/06 09:56:58;;;;;;;10.97;5.80;;;4.60;99.90;;;;;;4432578;28;656620;-75
2023/04/06 09:59:48;;;;;;;13.77;6.20;;;4.70;99.90;;;;;;4435679;27;656878;-73
2023/04/06 10:02:40;;;;;;;12.60;6.50;;;4.70;99.90;;;;;;4433208;28;656533;-73
2023/04/06 10:05:31;;;;;;;13.35;6.13;;;4.70;99.90;;;;;;4437047;28;657511;-75
2023/04/06 10:08:18;;;;;;;13.53;6.70;;;3.10;99.90;;;;;;4435566;28;657450;-75
2023/04/06 10:11:06;;;;;;;10.97;6.13;;;3.30;99.90;;;;;;4435954;28;656380;-75
2023/04/06 10:13:53;;;;;;;9.33;5.60;;;3.70;99.90;;;;;;4451762;28;657640;-75
2023/04/06 10:16:40;;;;;;;12.90;6.40;;;4.00;99.90;;;;;;4438623;28;657023;-73
2023/04/06 10:19:30;;;;;;;13.63;6.20;;;3.20;99.90;;;;;;4462509;28;657247;-75
2023/04/06 10:22:22;;;;;;;13.80;6.33;;;3.30;99.90;;;;;;4437803;28;658050;-76
2023/04/06 10:25:09;;;;;;;10.63;6.13;;;3.40;99.90;;;;;;4431120;28;656686;-75
2023/04/06 10:28:02;;;;;;;12.93;6.63;;;3.50;99.90;;;;;;4426753;28;656478;-75
2023/04/06 10:30:49;;;;;;;20.17;7.50;;;3.50;99.90;;;;;;4431900;28;656690;-75
2023/04/06 10:33:37;;;;;;;12.47;6.17;;;3.10;99.90;;;;;;4423321;28;658406;-75
2023/04/06 10:36:26;;;;;;;15.23;6.83;;;3.20;99.90;;;;;;4456201;28;656798;-74
2023/04/06 10:39:13;;;;;;;14.63;7.60;;;3.50;99.90;;;;;;4425676;28;657375;-75
2023/04/06 10:42:07;;;;;;;14.23;7.10;;;3.70;99.90;;;;;;4437522;28;657501;-75
2023/04/06 10:44:54;;;;;;;18.60;7.18;;;4.20;99.90;;;;;;4439426;28;658248;-75
2023/04/06 10:47:41;;;;;;;12.17;5.27;;;4.20;99.90;;;;;;4427769;28;656188;-75
2023/04/06 10:50:28;;;;;;;16.33;6.60;;;3.60;99.90;;;;;;4454082;28;656231;-76
2023/04/06 10:53:23;;;;;;;15.73;6.97;;;3.40;99.90;;;;;;4424903;28;656802;-75
2023/04/06 10:56:11;;;;;;;14.75;6.38;;;3.60;99.90;;;;;;4413459;28;656823;-73
2023/04/06 10:58:58;;;;;;;11.50;6.00;;;3.90;99.90;;;;;;4454987;28;657295;-76
2023/04/06 11:01:46;;;;;;;16.90;6.63;;;4.30;99.90;;;;;;4425674;28;656295;-75
2023/04/06 11:04:33;;;;;;;12.63;6.07;;;4.50;99.90;;;;;;4445578;28;658254;-75
2023/04/06 11:07:24;;;;;;;11.57;6.47;;;4.00;99.90;;;;;;4443791;28;656968;-74
2023/04/06 11:10:13;;;;;;;12.30;6.63;;;3.90;99.90;;;;;;4432840;28;656634;-75
2023/04/06 11:13:00;;;;;;;10.63;5.73;;;3.70;99.90;;;;;;4440720;28;656983;-74
2023/04/06 11:15:48;;;;;;;15.30;6.63;;;3.50;99.90;;;;;;4448949;28;657247;-75
2023/04/06 11:18:36;;;;;;;11.57;6.07;;;3.30;99.90;;;;;;4437684;28;656904;-74
2023/04/06 11:21:34;;;;;;;18.70;6.50;;;3.50;99.90;;;;;;4445593;28;657205;-75
2023/04/06 11:24:23;;;;;;;16.00;6.97;;;3.20;99.90;;;;;;4395062;28;657724;-74
2023/04/06 11:27:12;;;;;;;12.80;6.37;;;3.10;99.90;;;;;;4440707;28;657114;-74
2023/04/06 11:29:59;;;;;;;14.17;6.73;;;3.30;99.90;;;;;;4457922;28;656728;-75
2023/04/06 11:32:46;;;;;;;15.37;7.30;;;3.50;99.90;;;;;;4444181;28;656664;-74
2023/04/06 11:35:34;;;;;;;10.83;4.83;;;3.60;99.90;;;;;;4460308;28;656776;-76
2023/04/06 11:38:21;;;;;;;18.27;6.77;;;3.50;99.90;;;;;;4429745;28;656513;-74
2023/04/06 11:41:08;;;;;;;12.40;6.17;;;3.20;99.90;;;;;;4439434;28;657441;-76
2023/04/06 11:43:57;;;;;;;10.17;4.97;;;3.30;99.90;;;;;;4443795;28;657258;-74
2023/04/06 11:46:53;;;;;;;13.03;6.23;;;3.20;99.90;;;;;;4448468;28;657536;-74
2023/04/06 11:49:41;;;;;;;11.73;5.83;;;3.10;99.90;;;;;;4404199;28;657251;-74
2023/04/06 11:52:29;;;;;;;13.37;6.63;;;2.90;99.90;;;;;;4452830;28;657907;-76
2023/04/06 11:55:18;;;;;;;12.87;5.93;;;2.80;99.90;;;;;;4421447;28;658265;-76
2023/04/06 11:58:05;;;;;;;11.17;6.03;;;2.80;99.90;;;;;;4420375;28;656665;-73
2023/04/06 12:00:54;;;;;;;13.77;6.13;;;2.50;99.90;;;;;;4452494;28;658407;-75
2023/04/06 12:03:41;;;;;;;13.63;5.87;;;2.60;99.90;;;;;;4423456;28;656656;-75
2023/04/06 12:06:28;;;;;;;13.47;6.40;;;2.50;99.90;;;;;;4455274;28;658637;-76
2023/04/06 12:09:17;;;;;;;13.73;5.67;;;2.50;99.90;;;;;;4432816;28;656945;-76
2023/04/06 12:12:04;;;;;;;12.03;6.17;;;2.30;99.90;;;;;;4443672;28;656818;-75
2023/04/06 12:14:51;;;;;;;19.10;6.67;;;2.20;99.90;;;;;;4436311;28;657086;-75
2023/04/06 12:17:40;;;;;;;14.23;6.60;;;1.90;99.90;;;;;;4443841;28;657766;-77
2023/04/06 12:20:27;;;;;;;13.73;6.40;;;2.10;1.00;;;;;;4439506;28;657466;-75
2023/04/06 12:23:14;;;;;;;16.00;7.22;;;2.10;1.00;;;;;;4457098;28;656302;-76
2023/04/06 12:26:02;;;;;;;18.10;7.40;;;2.20;1.00;;;;;;4423879;28;655582;-76
2023/04/06 12:28:49;;;;;;;16.77;7.50;;;1.90;1.00;;;;;;4452842;28;655944;-74
2023/04/06 12:31:38;;;;;;;14.03;7.37;;;1.80;1.00;;;;;;4428018;28;655701;-73
2023/04/06 12:34:27;;;;;;;20.25;8.00;;;1.90;1.00;;;;;;4422689;28;655464;-72
2023/04/06 12:37:14;;;;;;;14.47;7.17;;;1.70;1.00;;;;;;4447643;28;655615;-73
2023/04/06 12:40:03;;;;;;;18.27;7.53;;;1.70;1.00;;;;;;4440665;28;657278;-75
2023/04/06 12:42:50;;;;;;;19.45;8.52;;;1.60;1.00;;;;;;4446792;28;655401;-74
2023/04/06 12:45:37;;;;;;;15.90;8.00;;;1.60;1.00;;;;;;4462217;28;656752;-74
2023/04/06 12:48:27;;;;;;;21.13;8.60;;;1.60;1.00;;;;;;4455810;28;655725;-73
2023/04/06 12:51:17;;;;;;;16.63;8.53;;;1.30;1.00;;;;;;4457811;28;655829;-76
2023/04/06 12:54:04;;;;;;;18.70;9.13;;;1.20;1.00;;;;;;4436091;28;655670;-74
2023/04/06 12:56:52;;;;;;;17.13;9.23;;;1.20;1.00;;;;;;4432036;28;655128;-74
2023/04/06 12:59:40;;;;;;;19.33;9.73;;;1.00;5.60;;;;;;4455265;28;656519;-74
2023/04/06 13:02:27;;;;;;;18.53;9.43;;;1.20;93.00;;;;;;4436521;28;656478;-74
2023/04/06 13:05:18;;;;;;;22.17;9.90;;;1.20;1.00;;;;;;4440851;28;656965;-74
2023/04/06 13:08:07;;;;;;;18.43;9.47;;;1.20;5.60;;;;;;4404749;28;655447;-73
2023/04/06 13:10:54;;;;;;;22.90;10.53;;;1.10;19.80;;;;;;4449704;28;656491;-74
2023/04/06 13:13:41;;;;;;;21.45;9.88;;;1.10;79.00;;;;;;4440317;28;658332;-74
2023/04/06 13:16:29;;;;;;;19.97;10.73;;;0.70;99.90;;;;;;4451010;28;657405;-74
2023/04/06 13:19:16;;;;;;;21.77;11.30;;;0.90;99.90;;;;;;4424872;28;658116;-74
2023/04/06 13:22:03;;;;;;;20.50;10.40;;;1.20;99.90;;;;;;4447937;28;658805;-75
2023/04/06 13:24:52;;;;;;;19.87;10.70;;;1.40;1.00;;;;;;4434056;28;658032;-72
2023/04/06 13:27:39;;;;;;;24.87;11.37;;;1.30;1.00;;;;;;4443118;28;656812;-74
2023/04/06 13:30:26;;;;;;;21.40;10.93;;;1.10;45.60;;;;;;4439315;28;656854;-73
2023/04/06 13:33:13;;;;;;;22.23;10.87;;;0.90;99.90;;;;;;4456884;28;659053;-73
2023/04/06 13:36:00;;;;;;;20.43;10.77;;;0.90;99.90;;;;;;4433459;28;658227;-75
2023/04/06 13:38:48;;;;;;;21.03;11.27;;;0.80;99.90;;;;;;4453911;28;657979;-74
2023/04/06 13:41:37;;;;;;;19.97;10.17;;;0.80;99.90;;;;;;4447676;28;657395;-73
2023/04/06 13:44:24;;;;;;;26.33;10.80;;;0.90;99.90;;;;;;4455522;28;658065;-74
2023/04/06 13:47:12;;;;;;;18.90;9.67;;;0.90;99.90;;;;;;4438367;28;658093;-73
2023/04/06 13:49:59;;;;;;;19.20;9.77;;;0.90;99.90;;;;;;4457730;28;657318;-74
2023/04/06 13:52:46;;;;;;;21.40;10.70;;;0.90;99.90;;;;;;4438379;28;656749;-73
2023/04/06 13:55:33;;;;;;;17.37;9.37;;;0.90;99.90;;;;;;4454374;28;658307;-75
2023/04/06 13:58:22;;;;;;;20.93;9.77;;;0.90;99.90;;;;;;4446035;28;656874;-73
2023/04/06 14:01:10;;;;;;;22.05;9.45;;;1.10;99.90;;;;;;4457727;28;657096;-75
2023/04/06 14:03:57;;;;;;;18.60;9.63;;;0.90;99.90;;;;;;4429612;28;657412;-75
2023/04/06 14:06:46;;;;;;;24.07;12.73;;;0.80;99.90;;;;;;4462962;28;656681;-75
2023/04/06 14:09:33;;;;;;;22.67;12.63;;;0.80;99.90;;;;;;4440079;28;658589;-74
2023/04/06 14:12:20;;;;;;;21.90;12.77;;;0.80;99.90;;;;;;4401084;28;657620;-74
2023/04/06 14:15:11;;;;;;;23.97;13.07;;;0.80;99.90;;;;;;4423066;28;658777;-74
2023/04/06 14:17:58;;;;;;;27.77;14.20;;;0.80;99.90;;;;;;4393096;28;659084;-74
2023/04/06 14:20:46;;;;;;;32.60;16.10;;;0.70;99.90;;;;;;4396747;28;657872;-73